sensor_id;sensor_type;location;lat;lon;timestamp;pressure;altitude;pressure_sealevel;temperature;humidity
46534;BME280;32260;52.008;4.752;2023-01-19T00:00:43;100074.06;;;5.63;70.03
46534;BME280;32260;52.008;4.752;2023-01-19T00:03:09;100084.56;;;5.64;69.90
46534;BME280;32260;52.008;4.752;2023-01-19T00:05:41;100081.03;;;5.69;69.91
46534;BME280;32260;52.008;4.752;2023-01-19T00:08:08;100068.78;;;5.64;70.34
46534;BME280;32260;52.008;4.752;2023-01-19T00:10:44;100073.19;;;5.67;70.11
46534;BME280;32260;52.008;4.752;2023-01-19T00:13:11;100073.16;;;5.69;70.33
46534;BME280;32260;52.008;4.752;2023-01-19T00:15:37;100071.34;;;5.71;70.05
46534;BME280;32260;52.008;4.752;2023-01-19T00:18:04;100077.47;;;5.73;70.05
46534;BME280;32260;52.008;4.752;2023-01-19T00:20:30;100074.81;;;5.74;70.03
46534;BME280;32260;52.008;4.752;2023-01-19T00:23:00;100077.44;;;5.74;70.13
46534;BME280;32260;52.008;4.752;2023-01-19T00:25:27;100082.69;;;5.74;70.21
46534;BME280;32260;52.008;4.752;2023-01-19T00:27:53;100094.09;;;5.75;70.57
46534;BME280;32260;52.008;4.752;2023-01-19T00:30:19;100108.19;;;5.67;70.88
46534;BME280;32260;52.008;4.752;2023-01-19T00:32:45;100120.56;;;5.58;71.09
46534;BME280;32260;52.008;4.752;2023-01-19T00:35:11;100112.00;;;5.43;70.72
46534;BME280;32260;52.008;4.752;2023-01-19T00:37:37;100104.22;;;5.29;70.91
46534;BME280;32260;52.008;4.752;2023-01-19T00:40:04;100111.25;;;5.26;70.92
46534;BME280;32260;52.008;4.752;2023-01-19T00:42:30;100100.81;;;5.19;71.16
46534;BME280;32260;52.008;4.752;2023-01-19T00:45:16;100095.66;;;5.12;71.47
46534;BME280;32260;52.008;4.752;2023-01-19T00:47:44;100100.06;;;5.08;71.50
46534;BME280;32260;52.008;4.752;2023-01-19T00:50:15;100098.28;;;5.10;71.76
46534;BME280;32260;52.008;4.752;2023-01-19T00:52:43;100098.34;;;5.04;72.07
46534;BME280;32260;52.008;4.752;2023-01-19T00:55:11;100114.97;;;5.06;72.33
46534;BME280;32260;52.008;4.752;2023-01-19T00:57:38;100109.66;;;5.11;72.16
46534;BME280;32260;52.008;4.752;2023-01-19T01:00:07;100095.63;;;5.13;72.55
46534;BME280;32260;52.008;4.752;2023-01-19T01:02:34;100108.75;;;5.13;72.43
46534;BME280;32260;52.008;4.752;2023-01-19T01:05:01;100130.66;;;5.14;72.89
46534;BME280;32260;52.008;4.752;2023-01-19T01:07:29;100113.94;;;5.19;73.15
46534;BME280;32260;52.008;4.752;2023-01-19T01:09:55;100113.09;;;5.19;73.81
46534;BME280;32260;52.008;4.752;2023-01-19T01:12:22;100123.56;;;5.21;73.55
46534;BME280;32260;52.008;4.752;2023-01-19T01:14:49;100112.13;;;5.28;73.49
46534;BME280;32260;52.008;4.752;2023-01-19T01:17:15;100120.00;;;5.31;73.34
46534;BME280;32260;52.008;4.752;2023-01-19T01:19:41;100133.13;;;5.28;73.82
46534;BME280;32260;52.008;4.752;2023-01-19T01:22:08;100148.94;;;5.25;73.73
46534;BME280;32260;52.008;4.752;2023-01-19T01:24:35;100137.50;;;5.29;73.80
46534;BME280;32260;52.008;4.752;2023-01-19T01:27:01;100133.06;;;5.37;73.61
46534;BME280;32260;52.008;4.752;2023-01-19T01:29:27;100138.31;;;5.37;73.64
46534;BME280;32260;52.008;4.752;2023-01-19T01:31:53;100128.63;;;5.41;73.53
46534;BME280;32260;52.008;4.752;2023-01-19T01:34:19;100136.53;;;5.39;73.49
46534;BME280;32260;52.008;4.752;2023-01-19T01:36:45;100154.09;;;5.34;73.63
46534;BME280;32260;52.008;4.752;2023-01-19T01:39:12;100160.22;;;5.36;73.46
46534;BME280;32260;52.008;4.752;2023-01-19T01:41:38;100161.16;;;5.29;73.67
46534;BME280;32260;52.008;4.752;2023-01-19T01:44:56;100183.91;;;5.27;73.10
46534;BME280;32260;52.008;4.752;2023-01-19T01:47:20;100191.06;;;5.09;72.56
46534;BME280;32260;52.008;4.752;2023-01-19T01:49:52;100189.41;;;5.00;72.49
46534;BME280;32260;52.008;4.752;2023-01-19T01:52:22;100189.50;;;4.86;72.70
46534;BME280;32260;52.008;4.752;2023-01-19T01:54:52;100197.44;;;4.77;72.65
46534;BME280;32260;52.008;4.752;2023-01-19T01:57:18;100205.38;;;4.68;72.59
46534;BME280;32260;52.008;4.752;2023-01-19T01:59:46;100200.13;;;4.66;72.74
46534;BME280;32260;52.008;4.752;2023-01-19T02:02:23;100199.28;;;4.63;72.95
46534;BME280;32260;52.008;4.752;2023-01-19T02:05:31;100208.06;;;4.51;72.96
46534;BME280;32260;52.008;4.752;2023-01-19T02:08:03;100204.59;;;4.50;73.16
46534;BME280;32260;52.008;4.752;2023-01-19T02:10:53;100205.44;;;4.54;73.09
46534;BME280;32260;52.008;4.752;2023-01-19T02:13:41;100203.72;;;4.48;73.19
46534;BME280;32260;52.008;4.752;2023-01-19T02:16:10;100215.06;;;4.57;73.19
46534;BME280;32260;52.008;4.752;2023-01-19T02:18:38;100223.81;;;4.56;73.68
46534;BME280;32260;52.008;4.752;2023-01-19T02:23:56;100227.34;;;4.51;73.65
46534;BME280;32260;52.008;4.752;2023-01-19T02:26:30;100225.56;;;4.52;73.47
46534;BME280;32260;52.008;4.752;2023-01-19T02:29:00;100223.84;;;4.48;73.84
46534;BME280;32260;52.008;4.752;2023-01-19T02:31:30;100240.47;;;4.47;73.58
46534;BME280;32260;52.008;4.752;2023-01-19T02:33:57;100235.22;;;4.45;73.68
46534;BME280;32260;52.008;4.752;2023-01-19T02:36:32;100244.00;;;4.41;73.95
46534;BME280;32260;52.008;4.752;2023-01-19T02:39:00;100236.97;;;4.46;73.59
46534;BME280;32260;52.008;4.752;2023-01-19T02:41:30;100247.47;;;4.45;73.80
46534;BME280;32260;52.008;4.752;2023-01-19T02:44:00;100246.63;;;4.41;73.91
46534;BME280;32260;52.008;4.752;2023-01-19T02:46:27;100233.50;;;4.43;74.07
46534;BME280;32260;52.008;4.752;2023-01-19T02:48:58;100235.22;;;4.42;73.99
46534;BME280;32260;52.008;4.752;2023-01-19T02:51:28;100240.47;;;4.45;73.93
46534;BME280;32260;52.008;4.752;2023-01-19T02:54:17;100265.81;;;4.49;73.87
46534;BME280;32260;52.008;4.752;2023-01-19T02:57:00;100258.81;;;4.47;73.59
46534;BME280;32260;52.008;4.752;2023-01-19T02:59:45;100272.84;;;4.43;73.81
46534;BME280;32260;52.008;4.752;2023-01-19T03:13:04;100262.38;;;4.35;74.14
46534;BME280;32260;52.008;4.752;2023-01-19T03:15:43;100258.88;;;4.30;74.08
46534;BME280;32260;52.008;4.752;2023-01-19T03:18:13;100280.81;;;4.16;73.50
46534;BME280;32260;52.008;4.752;2023-01-19T03:20:43;100286.94;;;4.09;73.87
46534;BME280;32260;52.008;4.752;2023-01-19T03:23:11;100296.53;;;4.09;73.71
46534;BME280;32260;52.008;4.752;2023-01-19T03:25:41;100298.31;;;4.05;73.55
46534;BME280;32260;52.008;4.752;2023-01-19T03:28:09;100289.56;;;4.09;73.59
46534;BME280;32260;52.008;4.752;2023-01-19T03:30:40;100266.84;;;4.11;73.87
46534;BME280;32260;52.008;4.752;2023-01-19T03:33:16;100263.31;;;4.15;73.82
46534;BME280;32260;52.008;4.752;2023-01-19T03:35:49;100256.31;;;4.16;73.85
46534;BME280;32260;52.008;4.752;2023-01-19T03:38:21;100252.81;;;4.15;73.88
46534;BME280;32260;52.008;4.752;2023-01-19T03:40:52;100256.31;;;4.14;73.93
46534;BME280;32260;52.008;4.752;2023-01-19T03:43:21;100259.81;;;4.19;73.59
46534;BME280;32260;52.008;4.752;2023-01-19T03:45:48;100261.53;;;4.17;73.65
46534;BME280;32260;52.008;4.752;2023-01-19T03:48:16;100264.16;;;4.22;73.58
46534;BME280;32260;52.008;4.752;2023-01-19T03:50:42;100264.16;;;4.22;73.52
46534;BME280;32260;52.008;4.752;2023-01-19T03:53:10;100262.41;;;4.19;74.11
46534;BME280;32260;52.008;4.752;2023-01-19T03:55:39;100279.03;;;4.18;73.78
46534;BME280;32260;52.008;4.752;2023-01-19T03:58:05;100278.16;;;4.24;73.68
46534;BME280;32260;52.008;4.752;2023-01-19T04:00:32;100280.75;;;4.26;73.81
46534;BME280;32260;52.008;4.752;2023-01-19T04:02:58;100289.50;;;4.25;73.97
46534;BME280;32260;52.008;4.752;2023-01-19T04:05:25;100293.88;;;4.21;73.90
46534;BME280;32260;52.008;4.752;2023-01-19T04:07:52;100289.50;;;4.23;73.84
46534;BME280;32260;52.008;4.752;2023-01-19T04:10:18;100286.03;;;4.23;73.99
46534;BME280;32260;52.008;4.752;2023-01-19T04:12:45;100286.03;;;4.19;73.69
46534;BME280;32260;52.008;4.752;2023-01-19T04:15:11;100283.38;;;4.21;73.58
46534;BME280;32260;52.008;4.752;2023-01-19T04:17:37;100286.03;;;4.23;73.94
46534;BME280;32260;52.008;4.752;2023-01-19T04:20:04;100286.03;;;4.23;73.74
46534;BME280;32260;52.008;4.752;2023-01-19T04:22:31;100285.13;;;4.24;74.13
46534;BME280;32260;52.008;4.752;2023-01-19T04:24:57;100279.00;;;4.25;73.87
46534;BME280;32260;52.008;4.752;2023-01-19T04:27:24;100270.28;;;4.23;74.10
46534;BME280;32260;52.008;4.752;2023-01-19T04:29:51;100283.38;;;4.26;73.67
46534;BME280;32260;52.008;4.752;2023-01-19T04:32:17;100273.75;;;4.25;73.87
46534;BME280;32260;52.008;4.752;2023-01-19T04:34:43;100274.63;;;4.28;74.32
46534;BME280;32260;52.008;4.752;2023-01-19T04:37:10;100274.63;;;4.28;73.95
46534;BME280;32260;52.008;4.752;2023-01-19T04:39:36;100280.75;;;4.32;74.04
46534;BME280;32260;52.008;4.752;2023-01-19T04:42:02;100278.09;;;4.33;74.48
46534;BME280;32260;52.008;4.752;2023-01-19T04:44:28;100276.34;;;4.38;74.43
46534;BME280;32260;52.008;4.752;2023-01-19T04:46:54;100282.47;;;4.44;73.90
46534;BME280;32260;52.008;4.752;2023-01-19T04:49:20;100280.69;;;4.44;73.93
46534;BME280;32260;52.008;4.752;2023-01-19T04:51:47;100283.28;;;4.47;73.91
46534;BME280;32260;52.008;4.752;2023-01-19T04:54:13;100288.53;;;4.50;74.00
46534;BME280;32260;52.008;4.752;2023-01-19T04:56:39;100291.13;;;4.53;73.97
46534;BME280;32260;52.008;4.752;2023-01-19T04:59:06;100292.00;;;4.56;74.05
46534;BME280;32260;52.008;4.752;2023-01-19T05:01:32;100293.75;;;4.58;74.42
46534;BME280;32260;52.008;4.752;2023-01-19T05:03:58;100287.63;;;4.64;73.96
46534;BME280;32260;52.008;4.752;2023-01-19T05:06:24;100296.34;;;4.67;74.01
46534;BME280;32260;52.008;4.752;2023-01-19T05:08:50;100299.78;;;4.76;73.84
46534;BME280;32260;52.008;4.752;2023-01-19T05:11:16;100294.53;;;4.80;73.57
46534;BME280;32260;52.008;4.752;2023-01-19T05:13:43;100300.63;;;4.89;73.20
46534;BME280;32260;52.008;4.752;2023-01-19T05:16:09;100291.81;;;4.99;72.91
46534;BME280;32260;52.008;4.752;2023-01-19T05:18:35;100302.25;;;5.07;72.41
46534;BME280;32260;52.008;4.752;2023-01-19T05:21:03;100311.88;;;5.12;71.76
46534;BME280;32260;52.008;4.752;2023-01-19T05:23:29;100304.78;;;5.21;71.92
46534;BME280;32260;52.008;4.752;2023-01-19T05:25:57;100310.88;;;5.26;71.45
46534;BME280;32260;52.008;4.752;2023-01-19T05:28:26;100300.34;;;5.30;71.22
46534;BME280;32260;52.008;4.752;2023-01-19T05:30:52;100304.69;;;5.36;70.94
46534;BME280;32260;52.008;4.752;2023-01-19T05:33:19;100311.66;;;5.43;70.57
46534;BME280;32260;52.008;4.752;2023-01-19T05:35:50;100315.09;;;5.51;70.29
46534;BME280;32260;52.008;4.752;2023-01-19T05:38:17;100315.94;;;5.55;70.27
46534;BME280;32260;52.008;4.752;2023-01-19T05:40:43;100321.16;;;5.57;69.84
46534;BME280;32260;52.008;4.752;2023-01-19T05:43:09;100317.63;;;5.62;70.79
46534;BME280;32260;52.008;4.752;2023-01-19T05:45:35;100314.09;;;5.65;70.32
46534;BME280;32260;52.008;4.752;2023-01-19T05:48:04;100326.34;;;5.67;70.08
46534;BME280;32260;52.008;4.752;2023-01-19T05:50:31;100328.06;;;5.70;70.35
46534;BME280;32260;52.008;4.752;2023-01-19T05:52:58;100320.22;;;5.65;69.67
46534;BME280;32260;52.008;4.752;2023-01-19T05:55:25;100334.28;;;5.61;69.82
46534;BME280;32260;52.008;4.752;2023-01-19T05:57:51;100334.25;;;5.63;69.85
46534;BME280;32260;52.008;4.752;2023-01-19T06:00:17;100335.19;;;5.59;69.67
46534;BME280;32260;52.008;4.752;2023-01-19T06:02:44;100336.88;;;5.64;69.98
46534;BME280;32260;52.008;4.752;2023-01-19T06:05:11;100335.13;;;5.65;69.22
46534;BME280;32260;52.008;4.752;2023-01-19T06:07:37;100342.13;;;5.66;69.37
46534;BME280;32260;52.008;4.752;2023-01-19T06:10:04;100337.72;;;5.68;68.97
46534;BME280;32260;52.008;4.752;2023-01-19T06:12:30;100351.72;;;5.70;69.27
46534;BME280;32260;52.008;4.752;2023-01-19T06:14:57;100348.25;;;5.68;69.11
46534;BME280;32260;52.008;4.752;2023-01-19T06:17:23;100340.41;;;5.63;68.85
46534;BME280;32260;52.008;4.752;2023-01-19T06:19:49;100349.19;;;5.59;68.63
46534;BME280;32260;52.008;4.752;2023-01-19T06:22:15;100353.63;;;5.53;68.96
46534;BME280;32260;52.008;4.752;2023-01-19T06:24:41;100364.16;;;5.46;68.99
46534;BME280;32260;52.008;4.752;2023-01-19T06:27:07;100356.38;;;5.34;69.05
46534;BME280;32260;52.008;4.752;2023-01-19T06:29:33;100352.03;;;5.27;69.40
46534;BME280;32260;52.008;4.752;2023-01-19T06:32:00;100363.44;;;5.23;69.46
46534;BME280;32260;52.008;4.752;2023-01-19T06:34:26;100375.75;;;5.16;69.06
46534;BME280;32260;52.008;4.752;2023-01-19T06:36:55;100373.13;;;5.08;69.47
46534;BME280;32260;52.008;4.752;2023-01-19T06:39:21;100378.44;;;5.04;69.30
46534;BME280;32260;52.008;4.752;2023-01-19T06:41:47;100395.94;;;4.97;69.69
46534;BME280;32260;52.008;4.752;2023-01-19T06:44:13;100400.34;;;4.93;69.69
46534;BME280;32260;52.008;4.752;2023-01-19T06:46:39;100404.72;;;4.97;69.30
46534;BME280;32260;52.008;4.752;2023-01-19T06:49:05;100397.66;;;5.10;69.61
46534;BME280;32260;52.008;4.752;2023-01-19T06:51:31;100416.00;;;5.18;69.53
46534;BME280;32260;52.008;4.752;2023-01-19T06:53:57;100409.84;;;5.24;68.81
46534;BME280;32260;52.008;4.752;2023-01-19T06:56:24;100409.81;;;5.27;68.99
46534;BME280;32260;52.008;4.752;2023-01-19T06:58:50;100409.78;;;5.36;69.37
46534;BME280;32260;52.008;4.752;2023-01-19T07:01:18;100421.16;;;5.35;68.50
46534;BME280;32260;52.008;4.752;2023-01-19T07:03:44;100428.16;;;5.38;68.72
46534;BME280;32260;52.008;4.752;2023-01-19T07:06:10;100442.16;;;5.43;68.44
46534;BME280;32260;52.008;4.752;2023-01-19T07:08:37;100445.66;;;5.43;68.67
46534;BME280;32260;52.008;4.752;2023-01-19T07:11:06;100444.75;;;5.47;68.39
46534;BME280;32260;52.008;4.752;2023-01-19T07:13:34;100453.50;;;5.46;68.77
46534;BME280;32260;52.008;4.752;2023-01-19T07:16:05;100436.00;;;5.45;68.47
46534;BME280;32260;52.008;4.752;2023-01-19T07:18:32;100440.38;;;5.42;68.89
46534;BME280;32260;52.008;4.752;2023-01-19T07:20:59;100436.88;;;5.43;68.68
46534;BME280;32260;52.008;4.752;2023-01-19T07:23:25;100453.53;;;5.40;68.30
46534;BME280;32260;52.008;4.752;2023-01-19T07:25:56;100458.78;;;5.46;68.13
46534;BME280;32260;52.008;4.752;2023-01-19T07:28:23;100445.63;;;5.46;67.53
46534;BME280;32260;52.008;4.752;2023-01-19T07:30:51;100464.03;;;5.46;67.82
46534;BME280;32260;52.008;4.752;2023-01-19T07:33:18;100462.28;;;5.48;66.94
46534;BME280;32260;52.008;4.752;2023-01-19T07:35:48;100461.34;;;5.54;66.83
46534;BME280;32260;52.008;4.752;2023-01-19T07:38:15;100465.75;;;5.52;65.98
46534;BME280;32260;52.008;4.752;2023-01-19T07:40:42;100467.47;;;5.58;66.08
46534;BME280;32260;52.008;4.752;2023-01-19T07:43:08;100478.03;;;5.48;64.83
46534;BME280;32260;52.008;4.752;2023-01-19T07:45:35;100473.63;;;5.49;65.22
46534;BME280;32260;52.008;4.752;2023-01-19T07:48:01;100479.78;;;5.51;65.90
46534;BME280;32260;52.008;4.752;2023-01-19T07:50:27;100485.91;;;5.55;65.51
46534;BME280;32260;52.008;4.752;2023-01-19T07:52:55;100488.50;;;5.56;65.46
46534;BME280;32260;52.008;4.752;2023-01-19T07:55:22;100505.13;;;5.57;65.29
46534;BME280;32260;52.008;4.752;2023-01-19T07:57:49;100502.56;;;5.44;65.80
46534;BME280;32260;52.008;4.752;2023-01-19T08:00:17;100486.78;;;5.44;65.28
46534;BME280;32260;52.008;4.752;2023-01-19T08:02:47;100500.84;;;5.40;65.15
46534;BME280;32260;52.008;4.752;2023-01-19T08:05:17;100510.47;;;5.41;65.80
46534;BME280;32260;52.008;4.752;2023-01-19T08:07:44;100517.53;;;5.30;65.16
46534;BME280;32260;52.008;4.752;2023-01-19T08:10:12;100522.78;;;5.28;65.90
46534;BME280;32260;52.008;4.752;2023-01-19T08:12:39;100521.88;;;5.34;65.64
46534;BME280;32260;52.008;4.752;2023-01-19T08:15:07;100535.88;;;5.33;65.83
46534;BME280;32260;52.008;4.752;2023-01-19T08:17:33;100534.13;;;5.35;65.79
46534;BME280;32260;52.008;4.752;2023-01-19T08:19:59;100529.75;;;5.37;65.97
46534;BME280;32260;52.008;4.752;2023-01-19T08:22:25;100542.88;;;5.35;65.69
46534;BME280;32260;52.008;4.752;2023-01-19T08:24:51;100541.13;;;5.39;66.08
46534;BME280;32260;52.008;4.752;2023-01-19T08:27:19;100544.63;;;5.38;66.29
46534;BME280;32260;52.008;4.752;2023-01-19T08:29:45;100546.41;;;5.36;66.49
46534;BME280;32260;52.008;4.752;2023-01-19T08:32:11;100552.53;;;5.33;66.91
46534;BME280;32260;52.008;4.752;2023-01-19T08:34:38;100549.91;;;5.35;67.01
46534;BME280;32260;52.008;4.752;2023-01-19T08:37:04;100554.25;;;5.34;67.16
46534;BME280;32260;52.008;4.752;2023-01-19T08:39:30;100555.16;;;5.35;67.10
46534;BME280;32260;52.008;4.752;2023-01-19T08:41:56;100557.75;;;5.38;67.23
46534;BME280;32260;52.008;4.752;2023-01-19T08:44:22;100564.78;;;5.38;67.05
46534;BME280;32260;52.008;4.752;2023-01-19T08:46:48;100562.16;;;5.33;67.19
46534;BME280;32260;52.008;4.752;2023-01-19T08:49:15;100556.94;;;5.30;66.98
46534;BME280;32260;52.008;4.752;2023-01-19T08:51:41;100569.19;;;5.28;67.26
46534;BME280;32260;52.008;4.752;2023-01-19T08:54:11;100560.44;;;5.19;67.07
46534;BME280;32260;52.008;4.752;2023-01-19T08:56:37;100565.72;;;5.21;67.28
46534;BME280;32260;52.008;4.752;2023-01-19T08:59:03;100562.19;;;5.14;67.29
46534;BME280;32260;52.008;4.752;2023-01-19T09:01:29;100563.09;;;5.16;67.26
46534;BME280;32260;52.008;4.752;2023-01-19T09:03:55;100562.22;;;5.17;67.44
46534;BME280;32260;52.008;4.752;2023-01-19T09:06:21;100563.94;;;5.20;67.04
46534;BME280;32260;52.008;4.752;2023-01-19T09:08:50;100565.72;;;5.21;67.25
46534;BME280;32260;52.008;4.752;2023-01-19T09:11:16;100563.94;;;5.25;67.11
46534;BME280;32260;52.008;4.752;2023-01-19T09:13:42;100570.94;;;5.26;67.05
46534;BME280;32260;52.008;4.752;2023-01-19T09:16:09;100573.56;;;5.30;66.82
46534;BME280;32260;52.008;4.752;2023-01-19T09:18:37;100576.19;;;5.33;66.99
46534;BME280;32260;52.008;4.752;2023-01-19T09:21:03;100577.06;;;5.37;66.92
46534;BME280;32260;52.008;4.752;2023-01-19T09:23:30;100578.78;;;5.37;67.15
46534;BME280;32260;52.008;4.752;2023-01-19T09:26:00;100585.78;;;5.42;67.13
46534;BME280;32260;52.008;4.752;2023-01-19T09:28:27;100582.28;;;5.42;67.29
46534;BME280;32260;52.008;4.752;2023-01-19T09:30:54;100585.78;;;5.44;66.98
46534;BME280;32260;52.008;4.752;2023-01-19T09:33:20;100585.75;;;5.51;66.85
46534;BME280;32260;52.008;4.752;2023-01-19T09:35:47;100588.38;;;5.55;66.68
46534;BME280;32260;52.008;4.752;2023-01-19T09:38:15;100592.72;;;5.60;66.52
46534;BME280;32260;52.008;4.752;2023-01-19T09:40:46;100600.59;;;5.65;66.25
46534;BME280;32260;52.008;4.752;2023-01-19T09:45:59;100597.06;;;5.74;66.47
46534;BME280;32260;52.008;4.752;2023-01-19T09:48:43;100601.41;;;5.82;66.69
46534;BME280;32260;52.008;4.752;2023-01-19T09:51:17;100612.81;;;5.81;66.08
46534;BME280;32260;52.008;4.752;2023-01-19T09:56:28;100620.66;;;5.89;64.59
46534;BME280;32260;52.008;4.752;2023-01-19T09:58:55;100615.38;;;5.95;64.47
46534;BME280;32260;52.008;4.752;2023-01-19T10:04:27;100614.41;;;6.20;65.37
46534;BME280;32260;52.008;4.752;2023-01-19T10:08:03;100624.03;;;6.24;64.58
46534;BME280;32260;52.008;4.752;2023-01-19T10:09:57;100618.72;;;6.31;64.57
46534;BME280;32260;52.008;4.752;2023-01-19T10:13:03;100616.94;;;6.38;63.48
46534;BME280;32260;52.008;4.752;2023-01-19T10:15:41;100626.56;;;6.42;61.74
46534;BME280;32260;52.008;4.752;2023-01-19T10:21:12;100624.75;;;6.49;61.90
46534;BME280;32260;52.008;4.752;2023-01-19T10:29:07;100624.72;;;6.54;60.10
46534;BME280;32260;52.008;4.752;2023-01-19T10:31:35;100636.09;;;6.60;58.84
46534;BME280;32260;52.008;4.752;2023-01-19T10:34:03;100637.81;;;6.64;58.70
46534;BME280;32260;52.008;4.752;2023-01-19T10:36:34;100639.56;;;6.67;57.16
46534;BME280;32260;52.008;4.752;2023-01-19T10:39:03;100639.50;;;6.70;57.16
46534;BME280;32260;52.008;4.752;2023-01-19T10:41:40;100630.66;;;6.82;55.63
46534;BME280;32260;52.008;4.752;2023-01-19T10:44:07;100635.94;;;6.80;55.33
46534;BME280;32260;52.008;4.752;2023-01-19T10:46:51;100629.75;;;6.85;54.41
46534;BME280;32260;52.008;4.752;2023-01-19T10:49:39;100630.50;;;7.01;55.85
46534;BME280;32260;52.008;4.752;2023-01-19T10:52:42;100631.34;;;7.04;54.18
46534;BME280;32260;52.008;4.752;2023-01-19T10:54:57;100629.66;;;6.97;53.64
46534;BME280;32260;52.008;4.752;2023-01-19T10:57:30;100630.44;;;7.08;52.96
46534;BME280;32260;52.008;4.752;2023-01-19T10:59:57;100629.56;;;7.06;54.04
46534;BME280;32260;52.008;4.752;2023-01-19T11:02:26;100626.97;;;7.00;53.62
46534;BME280;32260;52.008;4.752;2023-01-19T11:04:55;100625.31;;;6.90;52.57
46534;BME280;32260;52.008;4.752;2023-01-19T11:07:31;100629.66;;;6.97;53.43
46534;BME280;32260;52.008;4.752;2023-01-19T11:12:56;100634.16;;;6.81;51.67
46534;BME280;32260;52.008;4.752;2023-01-19T11:18:02;100641.13;;;6.90;51.73
46534;BME280;32260;52.008;4.752;2023-01-19T11:20:34;100634.06;;;6.93;51.03
46534;BME280;32260;52.008;4.752;2023-01-19T11:23:30;100637.59;;;6.95;51.02
46534;BME280;32260;52.008;4.752;2023-01-19T11:25:59;100634.06;;;6.93;49.97
46534;BME280;32260;52.008;4.752;2023-01-19T11:28:36;100632.16;;;7.11;51.56
46534;BME280;32260;52.008;4.752;2023-01-19T11:34:04;100624.22;;;7.16;51.41
46534;BME280;32260;52.008;4.752;2023-01-19T11:36:56;100632.97;;;7.19;50.95
46534;BME280;32260;52.008;4.752;2023-01-19T11:39:25;100629.47;;;7.20;51.53
46534;BME280;32260;52.008;4.752;2023-01-19T11:41:55;100632.13;;;7.16;50.53
46534;BME280;32260;52.008;4.752;2023-01-19T11:45:15;100633.63;;;7.40;51.34
46534;BME280;32260;52.008;4.752;2023-01-19T11:50:30;100632.59;;;7.58;50.46
46534;BME280;32260;52.008;4.752;2023-01-19T11:53:05;100630.75;;;7.63;48.95
46534;BME280;32260;52.008;4.752;2023-01-19T11:55:48;100630.66;;;7.72;48.03
46534;BME280;32260;52.008;4.752;2023-01-19T11:58:18;100631.63;;;7.65;48.22
46534;BME280;32260;52.008;4.752;2023-01-19T12:00:51;100643.03;;;7.66;48.26
46534;BME280;32260;52.008;4.752;2023-01-19T12:03:26;100645.03;;;7.43;47.24
46534;BME280;32260;52.008;4.752;2023-01-19T12:05:59;100643.31;;;7.39;47.88
46534;BME280;32260;52.008;4.752;2023-01-19T12:08:34;100644.13;;;7.46;49.09
46534;BME280;32260;52.008;4.752;2023-01-19T12:11:02;100645.84;;;7.49;47.72
46534;BME280;32260;52.008;4.752;2023-01-19T12:13:30;100644.09;;;7.48;47.57
46534;BME280;32260;52.008;4.752;2023-01-19T12:16:08;100644.88;;;7.59;48.63
46534;BME280;32260;52.008;4.752;2023-01-19T12:18:39;100638.69;;;7.60;48.48
46534;BME280;32260;52.008;4.752;2023-01-19T12:21:08;100646.53;;;7.66;48.99
46534;BME280;32260;52.008;4.752;2023-01-19T12:29:14;100645.00;;;7.47;48.09
46534;BME280;32260;52.008;4.752;2023-01-19T12:31:42;100635.25;;;7.56;48.22
46534;BME280;32260;52.008;4.752;2023-01-19T12:37:02;100630.56;;;7.82;47.68
46534;BME280;32260;52.008;4.752;2023-01-19T12:39:29;100629.56;;;7.90;47.50
46534;BME280;32260;52.008;4.752;2023-01-19T12:42:13;100626.88;;;7.95;46.26
46534;BME280;32260;52.008;4.752;2023-01-19T12:44:40;100629.53;;;7.95;47.24
46534;BME280;32260;52.008;4.752;2023-01-19T12:52:41;100623.09;;;8.15;46.35
46534;BME280;32260;52.008;4.752;2023-01-19T12:58:02;100635.84;;;7.78;46.45
46534;BME280;32260;52.008;4.752;2023-01-19T13:05:54;100632.66;;;7.52;47.73
46534;BME280;32260;52.008;4.752;2023-01-19T13:08:24;100628.38;;;7.41;47.58
46534;BME280;32260;52.008;4.752;2023-01-19T13:21:48;100633.72;;;7.35;47.59
46534;BME280;32260;52.008;4.752;2023-01-19T13:24:18;100635.34;;;7.45;47.94
46534;BME280;32260;52.008;4.752;2023-01-19T13:32:03;100628.81;;;7.77;47.74
46534;BME280;32260;52.008;4.752;2023-01-19T13:34:49;100640.06;;;7.95;46.69
46534;BME280;32260;52.008;4.752;2023-01-19T13:37:20;100633.94;;;7.90;47.01
46534;BME280;32260;52.008;4.752;2023-01-19T13:39:50;100633.88;;;7.96;46.69
46534;BME280;32260;52.008;4.752;2023-01-19T13:42:28;100636.47;;;8.01;46.34
46534;BME280;32260;52.008;4.752;2023-01-19T13:44:58;100641.81;;;7.94;45.70
46534;BME280;32260;52.008;4.752;2023-01-19T13:47:36;100648.91;;;7.91;45.58
46534;BME280;32260;52.008;4.752;2023-01-19T13:50:04;100645.28;;;8.00;46.13
46534;BME280;32260;52.008;4.752;2023-01-19T13:52:31;100647.00;;;8.02;46.23
46534;BME280;32260;52.008;4.752;2023-01-19T13:54:59;100642.53;;;8.09;45.35
46534;BME280;32260;52.008;4.752;2023-01-19T14:03:16;100652.88;;;8.24;46.13
46534;BME280;32260;52.008;4.752;2023-01-19T14:05:43;100650.31;;;8.18;45.36
46534;BME280;32260;52.008;4.752;2023-01-19T14:13:34;100663.47;;;8.23;44.68
46534;BME280;32260;52.008;4.752;2023-01-19T14:16:12;100657.22;;;8.29;45.06
46534;BME280;32260;52.008;4.752;2023-01-19T14:18:39;100663.38;;;8.29;45.38
46534;BME280;32260;52.008;4.752;2023-01-19T14:21:08;100664.25;;;8.28;45.42
46534;BME280;32260;52.008;4.752;2023-01-19T14:26:40;100670.44;;;8.27;46.00
46534;BME280;32260;52.008;4.752;2023-01-19T14:37:48;100669.59;;;8.23;45.87
46534;BME280;32260;52.008;4.752;2023-01-19T14:40:18;100665.22;;;8.21;46.28
46534;BME280;32260;52.008;4.752;2023-01-19T14:45:46;100670.59;;;8.15;45.66
46534;BME280;32260;52.008;4.752;2023-01-19T14:48:16;100681.19;;;8.12;46.16
46534;BME280;32260;52.008;4.752;2023-01-19T14:50:43;100680.34;;;8.08;45.75
46534;BME280;32260;52.008;4.752;2023-01-19T14:53:19;100677.75;;;8.06;45.59
46534;BME280;32260;52.008;4.752;2023-01-19T14:55:51;100681.34;;;7.99;45.86
46534;BME280;32260;52.008;4.752;2023-01-19T14:58:21;100680.47;;;7.99;46.76